sensor_id;sensor_type;location;lat;lon;timestamp;P1;durP1;ratioP1;P2;durP2;ratioP2
47960;SDS011;33721;48.852;9.936;2024-01-25T00:01:29;25.13;;;3.67;;
47960;SDS011;33721;48.852;9.936;2024-01-25T00:03:55;30.67;;;3.95;;
47960;SDS011;33721;48.852;9.936;2024-01-25T00:06:20;25.33;;;3.40;;
47960;SDS011;33721;48.852;9.936;2024-01-25T00:08:46;30.10;;;2.97;;
47960;SDS011;33721;48.852;9.936;2024-01-25T00:11:12;29.52;;;4.72;;
47960;SDS011;33721;48.852;9.936;2024-01-25T00:13:38;26.38;;;3.13;;
47960;SDS011;33721;48.852;9.936;2024-01-25T00:16:04;26.60;;;3.83;;
47960;SDS011;33721;48.852;9.936;2024-01-25T00:18:30;24.80;;;4.20;;
47960;SDS011;33721;48.852;9.936;2024-01-25T00:20:55;33.83;;;2.95;;
47960;SDS011;33721;48.852;9.936;2024-01-25T00:23:21;28.88;;;4.22;;
47960;SDS011;33721;48.852;9.936;2024-01-25T00:25:47;23.60;;;3.22;;
47960;SDS011;33721;48.852;9.936;2024-01-25T00:28:12;26.10;;;3.60;;
47960;SDS011;33721;48.852;9.936;2024-01-25T00:30:38;27.52;;;3.83;;
47960;SDS011;33721;48.852;9.936;2024-01-25T00:33:04;33.97;;;3.80;;
47960;SDS011;33721;48.852;9.936;2024-01-25T00:35:30;27.15;;;3.47;;
47960;SDS011;33721;48.852;9.936;2024-01-25T00:37:56;22.58;;;2.97;;
47960;SDS011;33721;48.852;9.936;2024-01-25T00:40:22;26.98;;;3.60;;
47960;SDS011;33721;48.852;9.936;2024-01-25T00:42:48;23.42;;;3.92;;
47960;SDS011;33721;48.852;9.936;2024-01-25T00:45:18;29.25;;;3.42;;
47960;SDS011;33721;48.852;9.936;2024-01-25T00:47:45;33.45;;;4.20;;
47960;SDS011;33721;48.852;9.936;2024-01-25T00:50:11;30.52;;;3.40;;
47960;SDS011;33721;48.852;9.936;2024-01-25T00:52:37;25.45;;;3.60;;
47960;SDS011;33721;48.852;9.936;2024-01-25T00:55:03;30.92;;;3.35;;
47960;SDS011;33721;48.852;9.936;2024-01-25T00:57:29;20.35;;;3.35;;
47960;SDS011;33721;48.852;9.936;2024-01-25T00:59:55;29.08;;;3.67;;
47960;SDS011;33721;48.852;9.936;2024-01-25T01:02:21;30.42;;;4.25;;
47960;SDS011;33721;48.852;9.936;2024-01-25T01:04:47;25.33;;;4.05;;
47960;SDS011;33721;48.852;9.936;2024-01-25T01:07:13;25.77;;;3.90;;
47960;SDS011;33721;48.852;9.936;2024-01-25T01:09:40;24.27;;;3.75;;
47960;SDS011;33721;48.852;9.936;2024-01-25T01:12:06;20.35;;;3.30;;
47960;SDS011;33721;48.852;9.936;2024-01-25T01:14:32;26.70;;;3.78;;
47960;SDS011;33721;48.852;9.936;2024-01-25T01:16:57;26.67;;;4.28;;
47960;SDS011;33721;48.852;9.936;2024-01-25T01:19:23;28.70;;;3.78;;
47960;SDS011;33721;48.852;9.936;2024-01-25T01:21:49;29.83;;;3.20;;
47960;SDS011;33721;48.852;9.936;2024-01-25T01:24:14;25.63;;;3.83;;
47960;SDS011;33721;48.852;9.936;2024-01-25T01:26:40;26.73;;;3.78;;
47960;SDS011;33721;48.852;9.936;2024-01-25T01:29:07;26.13;;;3.63;;
47960;SDS011;33721;48.852;9.936;2024-01-25T01:31:33;26.83;;;3.65;;
47960;SDS011;33721;48.852;9.936;2024-01-25T01:33:59;22.90;;;3.65;;
47960;SDS011;33721;48.852;9.936;2024-01-25T01:36:25;30.30;;;3.53;;
47960;SDS011;33721;48.852;9.936;2024-01-25T01:38:51;33.55;;;3.70;;
47960;SDS011;33721;48.852;9.936;2024-01-25T01:41:16;29.52;;;3.55;;
47960;SDS011;33721;48.852;9.936;2024-01-25T01:43:42;44.47;;;4.60;;
47960;SDS011;33721;48.852;9.936;2024-01-25T01:46:11;32.15;;;3.47;;
47960;SDS011;33721;48.852;9.936;2024-01-25T01:48:45;30.17;;;4.78;;
47960;SDS011;33721;48.852;9.936;2024-01-25T01:51:11;29.60;;;4.28;;
47960;SDS011;33721;48.852;9.936;2024-01-25T01:53:37;30.80;;;3.40;;
47960;SDS011;33721;48.852;9.936;2024-01-25T01:56:02;32.80;;;4.47;;
47960;SDS011;33721;48.852;9.936;2024-01-25T01:58:29;38.72;;;3.90;;
47960;SDS011;33721;48.852;9.936;2024-01-25T02:00:56;23.88;;;3.70;;
47960;SDS011;33721;48.852;9.936;2024-01-25T02:03:24;31.13;;;3.50;;
47960;SDS011;33721;48.852;9.936;2024-01-25T02:05:50;32.30;;;4.45;;
47960;SDS011;33721;48.852;9.936;2024-01-25T02:08:16;28.27;;;2.97;;
47960;SDS011;33721;48.852;9.936;2024-01-25T02:10:41;35.17;;;3.40;;
47960;SDS011;33721;48.852;9.936;2024-01-25T02:13:08;19.75;;;3.40;;
47960;SDS011;33721;48.852;9.936;2024-01-25T02:15:33;28.00;;;3.78;;
47960;SDS011;33721;48.852;9.936;2024-01-25T02:17:59;22.88;;;4.00;;
47960;SDS011;33721;48.852;9.936;2024-01-25T02:20:25;26.88;;;3.95;;
47960;SDS011;33721;48.852;9.936;2024-01-25T02:22:51;29.00;;;4.35;;
47960;SDS011;33721;48.852;9.936;2024-01-25T02:25:16;24.60;;;4.20;;
47960;SDS011;33721;48.852;9.936;2024-01-25T02:27:42;20.98;;;3.30;;
47960;SDS011;33721;48.852;9.936;2024-01-25T02:30:07;24.25;;;3.72;;
47960;SDS011;33721;48.852;9.936;2024-01-25T02:32:33;25.63;;;3.33;;
47960;SDS011;33721;48.852;9.936;2024-01-25T02:35:00;33.60;;;3.60;;
47960;SDS011;33721;48.852;9.936;2024-01-25T02:37:25;33.22;;;3.67;;
47960;SDS011;33721;48.852;9.936;2024-01-25T02:39:51;28.73;;;3.50;;
47960;SDS011;33721;48.852;9.936;2024-01-25T02:42:18;31.02;;;4.20;;
47960;SDS011;33721;48.852;9.936;2024-01-25T02:44:43;27.20;;;3.35;;
47960;SDS011;33721;48.852;9.936;2024-01-25T02:47:09;30.45;;;3.85;;
47960;SDS011;33721;48.852;9.936;2024-01-25T02:49:35;26.63;;;4.13;;
47960;SDS011;33721;48.852;9.936;2024-01-25T02:52:01;27.35;;;3.38;;
47960;SDS011;33721;48.852;9.936;2024-01-25T02:54:26;29.27;;;3.45;;
47960;SDS011;33721;48.852;9.936;2024-01-25T02:56:52;35.22;;;3.90;;
47960;SDS011;33721;48.852;9.936;2024-01-25T02:59:18;28.20;;;4.40;;
47960;SDS011;33721;48.852;9.936;2024-01-25T03:01:43;27.85;;;3.72;;
47960;SDS011;33721;48.852;9.936;2024-01-25T03:04:10;29.23;;;3.42;;
47960;SDS011;33721;48.852;9.936;2024-01-25T03:06:36;34.58;;;4.57;;
47960;SDS011;33721;48.852;9.936;2024-01-25T03:09:02;20.25;;;3.15;;
47960;SDS011;33721;48.852;9.936;2024-01-25T03:11:30;24.17;;;3.90;;
47960;SDS011;33721;48.852;9.936;2024-01-25T03:13:56;23.95;;;3.17;;
47960;SDS011;33721;48.852;9.936;2024-01-25T03:16:22;23.45;;;4.53;;
47960;SDS011;33721;48.852;9.936;2024-01-25T03:18:48;18.98;;;3.25;;
47960;SDS011;33721;48.852;9.936;2024-01-25T03:21:13;22.98;;;3.30;;
47960;SDS011;33721;48.852;9.936;2024-01-25T03:23:39;27.60;;;3.30;;
47960;SDS011;33721;48.852;9.936;2024-01-25T03:26:05;26.70;;;3.20;;
47960;SDS011;33721;48.852;9.936;2024-01-25T03:28:31;35.92;;;3.78;;
47960;SDS011;33721;48.852;9.936;2024-01-25T03:30:58;19.15;;;3.00;;
47960;SDS011;33721;48.852;9.936;2024-01-25T03:33:23;22.10;;;3.22;;
47960;SDS011;33721;48.852;9.936;2024-01-25T03:35:50;22.70;;;3.20;;
47960;SDS011;33721;48.852;9.936;2024-01-25T03:38:16;26.23;;;3.50;;
47960;SDS011;33721;48.852;9.936;2024-01-25T03:40:42;21.40;;;3.17;;
47960;SDS011;33721;48.852;9.936;2024-01-25T03:43:08;28.17;;;3.65;;
47960;SDS011;33721;48.852;9.936;2024-01-25T03:45:33;32.88;;;3.33;;
47960;SDS011;33721;48.852;9.936;2024-01-25T03:47:59;28.10;;;3.28;;
47960;SDS011;33721;48.852;9.936;2024-01-25T03:50:25;28.98;;;3.95;;
47960;SDS011;33721;48.852;9.936;2024-01-25T03:52:51;28.58;;;3.80;;
47960;SDS011;33721;48.852;9.936;2024-01-25T03:55:17;29.15;;;4.20;;
47960;SDS011;33721;48.852;9.936;2024-01-25T03:57:44;23.73;;;3.50;;
47960;SDS011;33721;48.852;9.936;2024-01-25T04:00:10;28.38;;;3.58;;
47960;SDS011;33721;48.852;9.936;2024-01-25T04:02:36;30.67;;;3.78;;
47960;SDS011;33721;48.852;9.936;2024-01-25T04:05:02;27.63;;;3.70;;
47960;SDS011;33721;48.852;9.936;2024-01-25T04:07:28;34.47;;;4.28;;
47960;SDS011;33721;48.852;9.936;2024-01-25T04:09:54;28.90;;;3.83;;
47960;SDS011;33721;48.852;9.936;2024-01-25T04:12:19;36.03;;;4.57;;
47960;SDS011;33721;48.852;9.936;2024-01-25T04:14:45;23.02;;;3.65;;
47960;SDS011;33721;48.852;9.936;2024-01-25T04:17:10;20.42;;;3.83;;
47960;SDS011;33721;48.852;9.936;2024-01-25T04:19:36;24.30;;;4.00;;
47960;SDS011;33721;48.852;9.936;2024-01-25T04:22:02;31.95;;;4.65;;
47960;SDS011;33721;48.852;9.936;2024-01-25T04:24:27;30.63;;;4.25;;
47960;SDS011;33721;48.852;9.936;2024-01-25T04:26:53;22.27;;;3.03;;
47960;SDS011;33721;48.852;9.936;2024-01-25T04:29:19;24.05;;;3.10;;
47960;SDS011;33721;48.852;9.936;2024-01-25T04:31:45;25.10;;;3.60;;
47960;SDS011;33721;48.852;9.936;2024-01-25T04:34:14;21.45;;;4.28;;
47960;SDS011;33721;48.852;9.936;2024-01-25T04:36:41;20.37;;;3.10;;
47960;SDS011;33721;48.852;9.936;2024-01-25T04:39:07;23.05;;;3.20;;
47960;SDS011;33721;48.852;9.936;2024-01-25T04:41:33;23.98;;;3.83;;
47960;SDS011;33721;48.852;9.936;2024-01-25T04:43:58;29.40;;;3.47;;
47960;SDS011;33721;48.852;9.936;2024-01-25T04:46:24;29.60;;;4.47;;
47960;SDS011;33721;48.852;9.936;2024-01-25T04:48:49;28.90;;;3.65;;
47960;SDS011;33721;48.852;9.936;2024-01-25T04:51:16;28.73;;;3.50;;
47960;SDS011;33721;48.852;9.936;2024-01-25T04:53:42;24.17;;;3.70;;
47960;SDS011;33721;48.852;9.936;2024-01-25T04:56:08;17.88;;;3.17;;
47960;SDS011;33721;48.852;9.936;2024-01-25T04:58:34;21.08;;;3.45;;
47960;SDS011;33721;48.852;9.936;2024-01-25T05:01:00;26.65;;;3.63;;
47960;SDS011;33721;48.852;9.936;2024-01-25T05:03:25;25.17;;;4.40;;
47960;SDS011;33721;48.852;9.936;2024-01-25T05:05:51;30.58;;;3.65;;
47960;SDS011;33721;48.852;9.936;2024-01-25T05:08:17;29.52;;;3.67;;
47960;SDS011;33721;48.852;9.936;2024-01-25T05:10:43;20.80;;;3.75;;
47960;SDS011;33721;48.852;9.936;2024-01-25T05:13:08;27.58;;;3.97;;
47960;SDS011;33721;48.852;9.936;2024-01-25T05:15:34;23.02;;;3.45;;
47960;SDS011;33721;48.852;9.936;2024-01-25T05:18:01;26.23;;;3.17;;
47960;SDS011;33721;48.852;9.936;2024-01-25T05:20:27;23.80;;;3.83;;
47960;SDS011;33721;48.852;9.936;2024-01-25T05:22:57;26.23;;;3.35;;
47960;SDS011;33721;48.852;9.936;2024-01-25T05:25:23;25.17;;;4.07;;
47960;SDS011;33721;48.852;9.936;2024-01-25T05:27:51;29.75;;;3.53;;
47960;SDS011;33721;48.852;9.936;2024-01-25T05:30:17;26.45;;;3.60;;
47960;SDS011;33721;48.852;9.936;2024-01-25T05:32:43;20.33;;;3.10;;
47960;SDS011;33721;48.852;9.936;2024-01-25T05:35:09;23.00;;;3.78;;
47960;SDS011;33721;48.852;9.936;2024-01-25T05:37:34;26.02;;;3.58;;
47960;SDS011;33721;48.852;9.936;2024-01-25T05:40:00;25.77;;;4.47;;
47960;SDS011;33721;48.852;9.936;2024-01-25T05:42:26;27.05;;;3.42;;
47960;SDS011;33721;48.852;9.936;2024-01-25T05:44:51;29.27;;;3.67;;
47960;SDS011;33721;48.852;9.936;2024-01-25T05:47:17;23.65;;;3.47;;
47960;SDS011;33721;48.852;9.936;2024-01-25T05:49:43;25.52;;;4.07;;
47960;SDS011;33721;48.852;9.936;2024-01-25T05:52:08;26.65;;;4.32;;
47960;SDS011;33721;48.852;9.936;2024-01-25T05:54:40;24.75;;;3.30;;
47960;SDS011;33721;48.852;9.936;2024-01-25T05:57:06;15.88;;;3.33;;
47960;SDS011;33721;48.852;9.936;2024-01-25T05:59:31;33.15;;;3.42;;
47960;SDS011;33721;48.852;9.936;2024-01-25T06:01:57;24.00;;;3.65;;
47960;SDS011;33721;48.852;9.936;2024-01-25T06:04:22;21.30;;;4.05;;
47960;SDS011;33721;48.852;9.936;2024-01-25T06:06:48;21.00;;;3.35;;
47960;SDS011;33721;48.852;9.936;2024-01-25T06:09:14;19.52;;;3.55;;
47960;SDS011;33721;48.852;9.936;2024-01-25T06:11:40;24.17;;;3.72;;
47960;SDS011;33721;48.852;9.936;2024-01-25T06:14:06;32.30;;;3.80;;
47960;SDS011;33721;48.852;9.936;2024-01-25T06:16:32;27.20;;;3.58;;
47960;SDS011;33721;48.852;9.936;2024-01-25T06:18:58;27.02;;;4.03;;
47960;SDS011;33721;48.852;9.936;2024-01-25T06:21:25;25.38;;;3.80;;
47960;SDS011;33721;48.852;9.936;2024-01-25T06:23:51;31.83;;;4.07;;
47960;SDS011;33721;48.852;9.936;2024-01-25T06:26:16;33.17;;;3.90;;
47960;SDS011;33721;48.852;9.936;2024-01-25T06:28:42;34.38;;;4.43;;
47960;SDS011;33721;48.852;9.936;2024-01-25T06:31:07;31.33;;;4.35;;
47960;SDS011;33721;48.852;9.936;2024-01-25T06:33:33;28.05;;;4.15;;
47960;SDS011;33721;48.852;9.936;2024-01-25T06:35:59;30.80;;;4.00;;
47960;SDS011;33721;48.852;9.936;2024-01-25T06:38:25;16.77;;;3.05;;
47960;SDS011;33721;48.852;9.936;2024-01-25T06:40:50;27.15;;;3.97;;
47960;SDS011;33721;48.852;9.936;2024-01-25T06:43:16;24.77;;;4.50;;
47960;SDS011;33721;48.852;9.936;2024-01-25T06:45:42;33.83;;;4.38;;
47960;SDS011;33721;48.852;9.936;2024-01-25T06:48:07;29.25;;;4.65;;
47960;SDS011;33721;48.852;9.936;2024-01-25T06:50:36;30.20;;;4.75;;
47960;SDS011;33721;48.852;9.936;2024-01-25T06:53:02;28.88;;;5.25;;
47960;SDS011;33721;48.852;9.936;2024-01-25T06:55:29;35.70;;;4.55;;
47960;SDS011;33721;48.852;9.936;2024-01-25T06:57:54;21.30;;;3.92;;
47960;SDS011;33721;48.852;9.936;2024-01-25T07:00:20;32.67;;;4.13;;
47960;SDS011;33721;48.852;9.936;2024-01-25T07:02:46;27.15;;;5.47;;
47960;SDS011;33721;48.852;9.936;2024-01-25T07:05:12;39.80;;;4.28;;
47960;SDS011;33721;48.852;9.936;2024-01-25T07:07:38;32.85;;;4.35;;
47960;SDS011;33721;48.852;9.936;2024-01-25T07:10:05;26.33;;;4.03;;
47960;SDS011;33721;48.852;9.936;2024-01-25T07:12:31;28.48;;;4.05;;
47960;SDS011;33721;48.852;9.936;2024-01-25T07:14:57;32.80;;;4.32;;
47960;SDS011;33721;48.852;9.936;2024-01-25T07:17:23;34.40;;;4.82;;
47960;SDS011;33721;48.852;9.936;2024-01-25T07:19:48;21.52;;;4.35;;
47960;SDS011;33721;48.852;9.936;2024-01-25T07:22:14;26.27;;;3.25;;
47960;SDS011;33721;48.852;9.936;2024-01-25T07:24:42;29.30;;;3.42;;
47960;SDS011;33721;48.852;9.936;2024-01-25T07:27:08;35.50;;;4.60;;
47960;SDS011;33721;48.852;9.936;2024-01-25T07:29:35;37.08;;;4.05;;
47960;SDS011;33721;48.852;9.936;2024-01-25T07:32:01;33.83;;;3.83;;
47960;SDS011;33721;48.852;9.936;2024-01-25T07:34:28;32.63;;;4.60;;
47960;SDS011;33721;48.852;9.936;2024-01-25T07:36:53;25.42;;;3.40;;
47960;SDS011;33721;48.852;9.936;2024-01-25T07:39:19;25.75;;;3.90;;
47960;SDS011;33721;48.852;9.936;2024-01-25T07:41:44;25.83;;;3.72;;
47960;SDS011;33721;48.852;9.936;2024-01-25T07:44:10;30.48;;;3.72;;
47960;SDS011;33721;48.852;9.936;2024-01-25T07:46:37;38.15;;;4.40;;
47960;SDS011;33721;48.852;9.936;2024-01-25T07:49:03;19.77;;;4.32;;
47960;SDS011;33721;48.852;9.936;2024-01-25T07:51:28;30.77;;;4.80;;
47960;SDS011;33721;48.852;9.936;2024-01-25T07:53:54;33.70;;;3.95;;
47960;SDS011;33721;48.852;9.936;2024-01-25T07:56:20;28.40;;;4.90;;
47960;SDS011;33721;48.852;9.936;2024-01-25T07:58:47;30.23;;;4.90;;
47960;SDS011;33721;48.852;9.936;2024-01-25T08:01:19;22.75;;;3.92;;
47960;SDS011;33721;48.852;9.936;2024-01-25T08:03:45;27.27;;;3.78;;
47960;SDS011;33721;48.852;9.936;2024-01-25T08:06:10;30.17;;;3.92;;
47960;SDS011;33721;48.852;9.936;2024-01-25T08:08:36;27.42;;;4.40;;
47960;SDS011;33721;48.852;9.936;2024-01-25T08:11:02;33.70;;;5.43;;
47960;SDS011;33721;48.852;9.936;2024-01-25T08:13:29;30.20;;;5.40;;
47960;SDS011;33721;48.852;9.936;2024-01-25T08:15:55;35.03;;;8.35;;
47960;SDS011;33721;48.852;9.936;2024-01-25T08:18:21;33.35;;;6.82;;
47960;SDS011;33721;48.852;9.936;2024-01-25T08:20:52;23.10;;;6.72;;
47960;SDS011;33721;48.852;9.936;2024-01-25T08:23:18;59.40;;;15.93;;
47960;SDS011;33721;48.852;9.936;2024-01-25T08:25:44;33.75;;;9.55;;
47960;SDS011;33721;48.852;9.936;2024-01-25T08:28:09;31.77;;;5.45;;
47960;SDS011;33721;48.852;9.936;2024-01-25T08:30:35;26.75;;;5.50;;
47960;SDS011;33721;48.852;9.936;2024-01-25T08:33:01;27.75;;;4.07;;
47960;SDS011;33721;48.852;9.936;2024-01-25T08:35:26;27.10;;;4.10;;
47960;SDS011;33721;48.852;9.936;2024-01-25T08:37:52;27.98;;;3.83;;
47960;SDS011;33721;48.852;9.936;2024-01-25T08:40:17;29.10;;;4.70;;
47960;SDS011;33721;48.852;9.936;2024-01-25T08:42:43;25.02;;;4.53;;
47960;SDS011;33721;48.852;9.936;2024-01-25T08:45:09;37.38;;;4.60;;
47960;SDS011;33721;48.852;9.936;2024-01-25T08:47:35;27.90;;;4.70;;
47960;SDS011;33721;48.852;9.936;2024-01-25T08:50:01;28.80;;;4.45;;
47960;SDS011;33721;48.852;9.936;2024-01-25T08:52:28;28.23;;;3.78;;
47960;SDS011;33721;48.852;9.936;2024-01-25T08:54:54;29.00;;;4.00;;
47960;SDS011;33721;48.852;9.936;2024-01-25T08:57:20;34.45;;;4.00;;
47960;SDS011;33721;48.852;9.936;2024-01-25T08:59:45;35.58;;;4.85;;
47960;SDS011;33721;48.852;9.936;2024-01-25T09:02:11;27.00;;;5.00;;
47960;SDS011;33721;48.852;9.936;2024-01-25T09:04:37;36.35;;;5.18;;
47960;SDS011;33721;48.852;9.936;2024-01-25T09:07:03;30.02;;;4.35;;
47960;SDS011;33721;48.852;9.936;2024-01-25T09:09:28;32.92;;;4.50;;
47960;SDS011;33721;48.852;9.936;2024-01-25T09:11:54;28.40;;;5.55;;
47960;SDS011;33721;48.852;9.936;2024-01-25T09:14:20;22.35;;;3.97;;
47960;SDS011;33721;48.852;9.936;2024-01-25T09:16:46;23.75;;;4.53;;
47960;SDS011;33721;48.852;9.936;2024-01-25T09:19:13;39.15;;;5.43;;
47960;SDS011;33721;48.852;9.936;2024-01-25T09:21:38;35.53;;;4.80;;
47960;SDS011;33721;48.852;9.936;2024-01-25T09:24:07;23.38;;;4.15;;
47960;SDS011;33721;48.852;9.936;2024-01-25T09:26:33;25.63;;;4.70;;
47960;SDS011;33721;48.852;9.936;2024-01-25T09:28:58;27.15;;;4.80;;
47960;SDS011;33721;48.852;9.936;2024-01-25T09:31:24;30.77;;;5.18;;
47960;SDS011;33721;48.852;9.936;2024-01-25T09:33:51;26.55;;;4.38;;
47960;SDS011;33721;48.852;9.936;2024-01-25T09:36:16;36.78;;;3.72;;
47960;SDS011;33721;48.852;9.936;2024-01-25T09:38:42;30.60;;;4.40;;
47960;SDS011;33721;48.852;9.936;2024-01-25T09:41:08;30.20;;;4.20;;
47960;SDS011;33721;48.852;9.936;2024-01-25T09:43:35;31.85;;;4.53;;
47960;SDS011;33721;48.852;9.936;2024-01-25T09:46:02;30.17;;;4.10;;
47960;SDS011;33721;48.852;9.936;2024-01-25T09:48:30;33.90;;;3.65;;
47960;SDS011;33721;48.852;9.936;2024-01-25T09:50:56;26.15;;;4.07;;
47960;SDS011;33721;48.852;9.936;2024-01-25T09:53:24;26.45;;;3.47;;
47960;SDS011;33721;48.852;9.936;2024-01-25T09:55:56;31.98;;;4.20;;
47960;SDS011;33721;48.852;9.936;2024-01-25T09:58:27;20.27;;;3.85;;
47960;SDS011;33721;48.852;9.936;2024-01-25T10:01:00;24.08;;;4.30;;
47960;SDS011;33721;48.852;9.936;2024-01-25T10:03:26;29.05;;;4.72;;
47960;SDS011;33721;48.852;9.936;2024-01-25T10:05:51;27.33;;;3.60;;
47960;SDS011;33721;48.852;9.936;2024-01-25T10:08:17;28.38;;;4.20;;
47960;SDS011;33721;48.852;9.936;2024-01-25T10:10:45;36.13;;;4.90;;
47960;SDS011;33721;48.852;9.936;2024-01-25T10:13:12;36.63;;;4.95;;
47960;SDS011;33721;48.852;9.936;2024-01-25T10:15:38;24.33;;;4.53;;
47960;SDS011;33721;48.852;9.936;2024-01-25T10:18:06;34.65;;;4.60;;
47960;SDS011;33721;48.852;9.936;2024-01-25T10:20:38;28.17;;;4.63;;
47960;SDS011;33721;48.852;9.936;2024-01-25T10:23:05;33.50;;;5.13;;
47960;SDS011;33721;48.852;9.936;2024-01-25T10:25:33;27.33;;;4.32;;
47960;SDS011;33721;48.852;9.936;2024-01-25T10:28:05;27.23;;;5.05;;
47960;SDS011;33721;48.852;9.936;2024-01-25T10:30:32;31.77;;;4.80;;
47960;SDS011;33721;48.852;9.936;2024-01-25T10:32:59;28.77;;;4.85;;
47960;SDS011;33721;48.852;9.936;2024-01-25T10:35:26;28.52;;;4.35;;
47960;SDS011;33721;48.852;9.936;2024-01-25T10:37:52;35.78;;;4.65;;
47960;SDS011;33721;48.852;9.936;2024-01-25T10:40:19;29.95;;;4.45;;
47960;SDS011;33721;48.852;9.936;2024-01-25T10:42:45;33.95;;;4.00;;
47960;SDS011;33721;48.852;9.936;2024-01-25T10:45:11;21.48;;;3.78;;
47960;SDS011;33721;48.852;9.936;2024-01-25T10:47:37;23.48;;;3.60;;
47960;SDS011;33721;48.852;9.936;2024-01-25T10:50:06;26.48;;;3.95;;
47960;SDS011;33721;48.852;9.936;2024-01-25T10:52:35;28.20;;;4.90;;
47960;SDS011;33721;48.852;9.936;2024-01-25T10:55:02;27.52;;;4.20;;
47960;SDS011;33721;48.852;9.936;2024-01-25T10:57:36;35.50;;;4.03;;
47960;SDS011;33721;48.852;9.936;2024-01-25T11:00:09;23.02;;;3.95;;
47960;SDS011;33721;48.852;9.936;2024-01-25T11:02:36;30.02;;;4.50;;
47960;SDS011;33721;48.852;9.936;2024-01-25T11:05:06;32.15;;;4.18;;
47960;SDS011;33721;48.852;9.936;2024-01-25T11:07:48;23.75;;;3.78;;
47960;SDS011;33721;48.852;9.936;2024-01-25T11:10:16;27.35;;;3.92;;
47960;SDS011;33721;48.852;9.936;2024-01-25T11:12:48;28.83;;;3.92;;
47960;SDS011;33721;48.852;9.936;2024-01-25T11:15:22;25.02;;;3.80;;
47960;SDS011;33721;48.852;9.936;2024-01-25T11:17:58;29.70;;;3.55;;
47960;SDS011;33721;48.852;9.936;2024-01-25T11:20:27;24.05;;;4.07;;
47960;SDS011;33721;48.852;9.936;2024-01-25T11:23:03;24.58;;;4.60;;
47960;SDS011;33721;48.852;9.936;2024-01-25T11:25:30;23.85;;;4.53;;
47960;SDS011;33721;48.852;9.936;2024-01-25T11:27:57;30.90;;;4.40;;
47960;SDS011;33721;48.852;9.936;2024-01-25T11:30:25;26.60;;;3.85;;
47960;SDS011;33721;48.852;9.936;2024-01-25T11:32:51;25.90;;;3.67;;
47960;SDS011;33721;48.852;9.936;2024-01-25T11:35:16;24.17;;;3.90;;
47960;SDS011;33721;48.852;9.936;2024-01-25T11:37:45;25.25;;;4.07;;
47960;SDS011;33721;48.852;9.936;2024-01-25T11:40:11;24.02;;;3.95;;
47960;SDS011;33721;48.852;9.936;2024-01-25T11:42:38;25.00;;;3.97;;
47960;SDS011;33721;48.852;9.936;2024-01-25T11:45:05;24.17;;;4.72;;
47960;SDS011;33721;48.852;9.936;2024-01-25T11:47:34;18.63;;;3.95;;
47960;SDS011;33721;48.852;9.936;2024-01-25T11:50:00;26.58;;;3.53;;
47960;SDS011;33721;48.852;9.936;2024-01-25T11:52:27;27.30;;;3.75;;
47960;SDS011;33721;48.852;9.936;2024-01-25T11:54:53;22.25;;;3.13;;
47960;SDS011;33721;48.852;9.936;2024-01-25T11:57:18;32.28;;;3.67;;
47960;SDS011;33721;48.852;9.936;2024-01-25T11:59:45;21.67;;;3.95;;
47960;SDS011;33721;48.852;9.936;2024-01-25T12:02:12;21.35;;;3.15;;
47960;SDS011;33721;48.852;9.936;2024-01-25T12:04:39;18.98;;;3.33;;
47960;SDS011;33721;48.852;9.936;2024-01-25T12:07:05;21.52;;;3.08;;
47960;SDS011;33721;48.852;9.936;2024-01-25T12:09:31;23.95;;;3.30;;
47960;SDS011;33721;48.852;9.936;2024-01-25T12:11:57;24.77;;;3.28;;
47960;SDS011;33721;48.852;9.936;2024-01-25T12:14:25;25.77;;;3.42;;
47960;SDS011;33721;48.852;9.936;2024-01-25T12:16:54;20.33;;;3.28;;
47960;SDS011;33721;48.852;9.936;2024-01-25T12:19:20;16.80;;;3.30;;
47960;SDS011;33721;48.852;9.936;2024-01-25T12:21:46;19.40;;;3.05;;
47960;SDS011;33721;48.852;9.936;2024-01-25T12:24:12;22.13;;;3.42;;
47960;SDS011;33721;48.852;9.936;2024-01-25T12:26:38;18.00;;;2.90;;
47960;SDS011;33721;48.852;9.936;2024-01-25T12:29:04;15.82;;;3.53;;
47960;SDS011;33721;48.852;9.936;2024-01-25T12:31:30;21.02;;;3.03;;
47960;SDS011;33721;48.852;9.936;2024-01-25T12:33:56;22.42;;;3.35;;
47960;SDS011;33721;48.852;9.936;2024-01-25T12:36:22;17.08;;;3.00;;
47960;SDS011;33721;48.852;9.936;2024-01-25T12:38:48;20.27;;;3.17;;
47960;SDS011;33721;48.852;9.936;2024-01-25T12:41:14;20.10;;;3.00;;
47960;SDS011;33721;48.852;9.936;2024-01-25T12:43:40;19.23;;;2.85;;
47960;SDS011;33721;48.852;9.936;2024-01-25T12:46:06;22.55;;;3.05;;
47960;SDS011;33721;48.852;9.936;2024-01-25T12:48:31;15.05;;;3.00;;
47960;SDS011;33721;48.852;9.936;2024-01-25T12:50:57;19.80;;;3.10;;
47960;SDS011;33721;48.852;9.936;2024-01-25T12:53:23;21.60;;;3.15;;
47960;SDS011;33721;48.852;9.936;2024-01-25T12:55:49;20.35;;;3.47;;
47960;SDS011;33721;48.852;9.936;2024-01-25T12:58:14;18.85;;;3.08;;
47960;SDS011;33721;48.852;9.936;2024-01-25T13:00:40;27.35;;;4.10;;
47960;SDS011;33721;48.852;9.936;2024-01-25T13:03:06;16.95;;;2.55;;
47960;SDS011;33721;48.852;9.936;2024-01-25T13:05:31;20.35;;;2.70;;
47960;SDS011;33721;48.852;9.936;2024-01-25T13:08:01;16.85;;;2.47;;
47960;SDS011;33721;48.852;9.936;2024-01-25T13:10:27;21.90;;;3.25;;
47960;SDS011;33721;48.852;9.936;2024-01-25T13:12:54;19.40;;;3.20;;
47960;SDS011;33721;48.852;9.936;2024-01-25T13:15:19;18.13;;;2.78;;
47960;SDS011;33721;48.852;9.936;2024-01-25T13:17:45;19.33;;;2.92;;
47960;SDS011;33721;48.852;9.936;2024-01-25T13:20:11;18.65;;;3.17;;
47960;SDS011;33721;48.852;9.936;2024-01-25T13:22:37;19.52;;;2.85;;
47960;SDS011;33721;48.852;9.936;2024-01-25T13:25:02;18.13;;;2.65;;
47960;SDS011;33721;48.852;9.936;2024-01-25T13:27:29;17.15;;;2.40;;
47960;SDS011;33721;48.852;9.936;2024-01-25T13:29:54;23.55;;;3.10;;
47960;SDS011;33721;48.852;9.936;2024-01-25T13:32:22;22.77;;;2.50;;
47960;SDS011;33721;48.852;9.936;2024-01-25T13:34:48;12.25;;;2.15;;
47960;SDS011;33721;48.852;9.936;2024-01-25T13:37:14;17.50;;;2.42;;
47960;SDS011;33721;48.852;9.936;2024-01-25T13:39:40;20.33;;;2.17;;
47960;SDS011;33721;48.852;9.936;2024-01-25T13:42:05;20.95;;;2.47;;
47960;SDS011;33721;48.852;9.936;2024-01-25T13:44:31;16.50;;;2.70;;
47960;SDS011;33721;48.852;9.936;2024-01-25T13:46:57;13.73;;;2.50;;
47960;SDS011;33721;48.852;9.936;2024-01-25T13:49:23;17.42;;;2.55;;
47960;SDS011;33721;48.852;9.936;2024-01-25T13:51:49;31.25;;;2.53;;
47960;SDS011;33721;48.852;9.936;2024-01-25T13:54:14;16.73;;;2.55;;
47960;SDS011;33721;48.852;9.936;2024-01-25T13:56:40;17.00;;;2.33;;
47960;SDS011;33721;48.852;9.936;2024-01-25T13:59:06;11.40;;;2.35;;
47960;SDS011;33721;48.852;9.936;2024-01-25T14:01:32;12.65;;;2.35;;
47960;SDS011;33721;48.852;9.936;2024-01-25T14:03:57;15.15;;;2.00;;
47960;SDS011;33721;48.852;9.936;2024-01-25T14:06:23;13.85;;;2.22;;
47960;SDS011;33721;48.852;9.936;2024-01-25T14:08:49;15.23;;;3.20;;
47960;SDS011;33721;48.852;9.936;2024-01-25T14:11:15;17.63;;;2.50;;
47960;SDS011;33721;48.852;9.936;2024-01-25T14:13:41;15.50;;;2.38;;
47960;SDS011;33721;48.852;9.936;2024-01-25T14:16:07;19.38;;;2.70;;
47960;SDS011;33721;48.852;9.936;2024-01-25T14:18:38;13.27;;;2.22;;
47960;SDS011;33721;48.852;9.936;2024-01-25T14:21:04;15.85;;;2.25;;
47960;SDS011;33721;48.852;9.936;2024-01-25T14:23:30;15.98;;;2.17;;
47960;SDS011;33721;48.852;9.936;2024-01-25T14:25:56;15.57;;;2.30;;
47960;SDS011;33721;48.852;9.936;2024-01-25T14:28:22;15.45;;;2.50;;